createdAt,value
2023-05-01T00:00:29.506Z,2.90
2023-05-01T00:01:29.504Z,2.89
2023-05-01T00:02:29.554Z,2.89
2023-05-01T00:03:29.603Z,2.87
2023-05-01T00:04:29.474Z,2.89
2023-05-01T00:05:29.446Z,2.87
2023-05-01T00:06:29.482Z,2.87
2023-05-01T00:07:29.465Z,2.86
2023-05-01T00:08:29.413Z,2.83
2023-05-01T00:09:29.389Z,2.81
2023-05-01T00:10:29.363Z,2.81
2023-05-01T00:11:29.385Z,2.81
2023-05-01T00:12:29.363Z,2.81
2023-05-01T00:13:29.343Z,2.80
2023-05-01T00:14:29.315Z,2.80
2023-05-01T00:15:29.334Z,2.77
2023-05-01T00:16:29.343Z,2.77
2023-05-01T00:17:29.328Z,2.77
2023-05-01T00:18:29.282Z,2.76
2023-05-01T00:19:29.261Z,2.76
2023-05-01T00:20:29.252Z,2.76
2023-05-01T00:21:29.238Z,2.76
2023-05-01T00:22:29.232Z,2.74
2023-05-01T00:23:29.195Z,2.73
2023-05-01T00:24:29.183Z,2.69
2023-05-01T00:25:29.211Z,2.66
2023-05-01T00:26:29.289Z,2.66
2023-05-01T00:27:29.160Z,2.65
2023-05-01T00:28:29.154Z,2.63
2023-05-01T00:29:29.139Z,2.65
2023-05-01T00:30:29.140Z,2.63
2023-05-01T00:31:29.160Z,2.59
2023-05-01T00:32:29.212Z,2.59
2023-05-01T00:33:29.085Z,2.56
2023-05-01T00:34:29.056Z,2.55
2023-05-01T00:35:29.060Z,2.53
2023-05-01T00:36:29.048Z,2.51
2023-05-01T00:37:29.029Z,2.47
2023-05-01T00:38:29.010Z,2.44
2023-05-01T00:39:29.024Z,2.43
2023-05-01T00:40:29.026Z,2.41
2023-05-01T00:41:28.977Z,2.40
2023-05-01T00:42:28.959Z,2.40
2023-05-01T00:43:28.966Z,2.38
2023-05-01T00:44:28.925Z,2.38
2023-05-01T00:45:29.036Z,2.40
2023-05-01T00:46:29.062Z,2.41
2023-05-01T00:47:28.914Z,2.41
2023-05-01T00:48:28.881Z,2.40
2023-05-01T00:49:28.888Z,2.40
2023-05-01T00:50:28.863Z,2.38
2023-05-01T00:51:28.846Z,2.40
2023-05-01T00:52:28.833Z,2.38
2023-05-01T00:53:28.828Z,2.37
2023-05-01T00:54:28.815Z,2.33
2023-05-01T00:55:28.813Z,2.32
2023-05-01T00:56:28.798Z,2.32
2023-05-01T00:57:28.779Z,2.30
2023-05-01T00:58:28.762Z,2.29
2023-05-01T00:59:28.749Z,2.27
2023-05-01T01:00:28.760Z,2.26
2023-05-01T01:01:28.970Z,2.22
2023-05-01T01:02:28.738Z,2.20
2023-05-01T01:03:28.709Z,2.22
2023-05-01T01:04:28.746Z,2.20
2023-05-01T01:05:28.701Z,2.20
2023-05-01T01:06:28.716Z,2.19
2023-05-01T01:07:28.642Z,2.15
2023-05-01T01:08:30.590Z,2.14
2023-05-01T01:09:28.624Z,2.09
2023-05-01T01:10:28.613Z,2.08
2023-05-01T01:11:28.588Z,2.07
2023-05-01T01:12:28.594Z,2.05
2023-05-01T01:13:28.619Z,2.04
2023-05-01T01:14:28.552Z,2.02
2023-05-01T01:15:28.541Z,2.02
2023-05-01T01:16:28.540Z,2.00
2023-05-01T01:17:28.576Z,1.95
2023-05-01T01:18:28.494Z,1.95
2023-05-01T01:19:28.488Z,1.93
2023-05-01T01:20:28.488Z,1.90
2023-05-01T01:21:28.494Z,1.89
2023-05-01T01:22:28.489Z,1.89
2023-05-01T01:23:28.450Z,1.90
2023-05-01T01:24:28.433Z,1.89
2023-05-01T01:25:28.439Z,1.86
2023-05-01T01:26:28.411Z,1.83
2023-05-01T01:27:28.424Z,1.82
2023-05-01T01:28:28.362Z,1.82
2023-05-01T01:29:28.366Z,1.79
2023-05-01T01:30:28.385Z,1.79
2023-05-01T01:31:28.363Z,1.79
2023-05-01T01:32:28.360Z,1.79
2023-05-01T01:33:28.314Z,1.79
2023-05-01T01:34:28.311Z,1.77
2023-05-01T01:35:28.309Z,1.77
2023-05-01T01:36:28.293Z,1.81
2023-05-01T01:37:28.252Z,1.79
2023-05-01T01:38:28.269Z,1.77
2023-05-01T01:39:28.233Z,1.75
2023-05-01T01:40:28.247Z,1.74
2023-05-01T01:41:28.197Z,1.74
2023-05-01T01:42:28.200Z,1.72
2023-05-01T01:43:28.202Z,1.72
2023-05-01T01:44:28.179Z,1.74
2023-05-01T01:45:28.166Z,1.72
2023-05-01T01:46:28.191Z,1.71
2023-05-01T01:47:28.289Z,1.71
2023-05-01T01:48:28.149Z,1.70
2023-05-01T01:49:28.101Z,1.68
2023-05-01T01:50:28.110Z,1.68
2023-05-01T01:51:28.091Z,1.65
2023-05-01T01:52:28.066Z,1.65
2023-05-01T01:53:28.067Z,1.64
2023-05-01T01:54:28.053Z,1.64
2023-05-01T01:55:28.046Z,1.61
2023-05-01T01:56:28.016Z,1.60
2023-05-01T01:57:27.997Z,1.60
2023-05-01T01:58:27.997Z,1.56
2023-05-01T01:59:27.990Z,1.57
2023-05-01T02:00:27.985Z,1.57
2023-05-01T02:01:27.999Z,1.57
2023-05-01T02:02:28.150Z,1.56
2023-05-01T02:03:28.040Z,1.56
2023-05-01T02:04:27.918Z,1.54
2023-05-01T02:05:27.910Z,1.56
2023-05-01T02:06:27.930Z,1.54
2023-05-01T02:07:27.886Z,1.52
2023-05-01T02:08:27.882Z,1.52
2023-05-01T02:09:27.842Z,1.50
2023-05-01T02:10:27.853Z,1.47
2023-05-01T02:11:27.819Z,1.46
2023-05-01T02:12:27.810Z,1.44
2023-05-01T02:13:27.808Z,1.43
2023-05-01T02:14:27.795Z,1.42
2023-05-01T02:15:27.781Z,1.43
2023-05-01T02:16:27.824Z,1.39
2023-05-01T02:17:27.767Z,1.39
2023-05-01T02:18:27.752Z,1.39
2023-05-01T02:19:27.730Z,1.39
2023-05-01T02:20:27.724Z,1.38
2023-05-01T02:21:27.697Z,1.38
2023-05-01T02:22:27.684Z,1.36
2023-05-01T02:23:27.688Z,1.38
2023-05-01T02:24:27.663Z,1.36
2023-05-01T02:25:29.560Z,1.35
2023-05-01T02:26:27.652Z,1.35
2023-05-01T02:27:27.638Z,1.35
2023-05-01T02:28:27.606Z,1.36
2023-05-01T02:29:27.604Z,1.38
2023-05-01T02:30:27.612Z,1.39
2023-05-01T02:31:27.610Z,1.42
2023-05-01T02:32:27.591Z,1.43
2023-05-01T02:33:27.545Z,1.43
2023-05-01T02:34:27.539Z,1.44
2023-05-01T02:35:27.522Z,1.44
2023-05-01T02:36:27.519Z,1.43
2023-05-01T02:37:27.522Z,1.43
2023-05-01T02:38:27.484Z,1.42
2023-05-01T02:39:27.472Z,1.42
2023-05-01T02:40:27.477Z,1.38
2023-05-01T02:41:27.438Z,1.36
2023-05-01T02:42:27.446Z,1.36
2023-05-01T02:43:27.441Z,1.35
2023-05-01T02:44:27.410Z,1.32
2023-05-01T02:45:27.430Z,1.32
2023-05-01T02:46:27.517Z,1.31
2023-05-01T02:47:27.537Z,1.29
2023-05-01T02:48:27.371Z,1.29
2023-05-01T02:49:27.338Z,1.28
2023-05-01T02:50:27.410Z,1.28
2023-05-01T02:51:27.326Z,1.28
2023-05-01T02:52:27.322Z,1.29
2023-05-01T02:53:27.315Z,1.29
2023-05-01T02:54:27.273Z,1.32
2023-05-01T02:55:27.291Z,1.31
2023-05-01T02:56:27.269Z,1.29
2023-05-01T02:57:27.237Z,1.29
2023-05-01T02:58:27.255Z,1.29
2023-05-01T02:59:27.206Z,1.28
2023-05-01T03:00:27.241Z,1.26
2023-05-01T03:01:27.206Z,1.25
2023-05-01T03:02:27.189Z,1.25
2023-05-01T03:03:27.155Z,1.26
2023-05-01T03:04:27.207Z,1.25
2023-05-01T03:05:27.144Z,1.24
2023-05-01T03:06:27.154Z,1.24
2023-05-01T03:07:27.114Z,1.21
2023-05-01T03:08:27.125Z,1.21
2023-05-01T03:09:27.088Z,1.24
2023-05-01T03:10:27.088Z,1.24
2023-05-01T03:11:27.061Z,1.24
2023-05-01T03:12:27.070Z,1.21
2023-05-01T03:13:27.043Z,1.24
2023-05-01T03:14:27.023Z,1.21
2023-05-01T03:15:27.032Z,1.21
2023-05-01T03:16:27.099Z,1.21
2023-05-01T03:17:27.027Z,1.20
2023-05-01T03:18:26.974Z,1.18
2023-05-01T03:19:26.953Z,1.17
2023-05-01T03:20:27.603Z,1.14
2023-05-01T03:21:26.946Z,1.16
2023-05-01T03:22:26.928Z,1.13
2023-05-01T03:23:26.906Z,1.13
2023-05-01T03:24:26.895Z,1.11
2023-05-01T03:25:26.882Z,1.11
2023-05-01T03:26:26.862Z,1.10
2023-05-01T03:27:26.863Z,1.10
2023-05-01T03:28:26.850Z,1.10
2023-05-01T03:29:26.817Z,1.10
2023-05-01T03:30:26.915Z,1.10
2023-05-01T03:31:26.870Z,1.10
2023-05-01T03:32:26.899Z,1.10
2023-05-01T03:33:26.790Z,1.13
2023-05-01T03:34:26.769Z,1.11
2023-05-01T03:35:26.844Z,1.11
2023-05-01T03:36:26.722Z,1.13
2023-05-01T03:37:26.720Z,1.14
2023-05-01T03:38:26.724Z,1.16
2023-05-01T03:39:26.694Z,1.16
2023-05-01T03:40:26.690Z,1.16
2023-05-01T03:41:26.656Z,1.17
2023-05-01T03:42:26.651Z,1.17
2023-05-01T03:43:26.644Z,1.20
2023-05-01T03:44:26.627Z,1.20
2023-05-01T03:45:26.626Z,1.20
2023-05-01T03:46:26.644Z,1.20
2023-05-01T03:47:26.625Z,1.21
2023-05-01T03:48:26.592Z,1.21
2023-05-01T03:49:26.557Z,1.24
2023-05-01T03:50:26.561Z,1.24
2023-05-01T03:51:26.544Z,1.21
2023-05-01T03:52:26.567Z,1.25
2023-05-01T03:53:26.509Z,1.28
2023-05-01T03:54:26.505Z,1.28
2023-05-01T03:55:26.514Z,1.29
2023-05-01T03:56:26.487Z,1.31
2023-05-01T03:57:26.459Z,1.31
2023-05-01T03:58:26.457Z,1.34
2023-05-01T03:59:26.453Z,1.35
2023-05-01T04:00:26.448Z,1.36
2023-05-01T04:01:26.432Z,1.38
2023-05-01T04:02:26.465Z,1.42
2023-05-01T04:03:26.594Z,1.43
2023-05-01T04:04:26.437Z,1.43
2023-05-01T04:05:26.359Z,1.46
2023-05-01T04:06:26.388Z,1.46
2023-05-01T04:07:26.351Z,1.47
2023-05-01T04:08:26.332Z,1.49
2023-05-01T04:09:26.329Z,1.53
2023-05-01T04:10:26.300Z,1.54
2023-05-01T04:11:26.272Z,1.57
2023-05-01T04:12:26.289Z,1.61
2023-05-01T04:13:26.267Z,1.64
2023-05-01T04:14:26.280Z,1.67
2023-05-01T04:15:26.232Z,1.68
2023-05-01T04:16:26.243Z,1.72
2023-05-01T04:17:26.204Z,1.75
2023-05-01T04:18:26.214Z,1.79
2023-05-01T04:19:26.191Z,1.82
2023-05-01T04:20:26.188Z,1.85
2023-05-01T04:21:26.154Z,1.90
2023-05-01T04:22:26.151Z,1.93
2023-05-01T04:23:26.147Z,1.98
2023-05-01T04:24:26.134Z,2.01
2023-05-01T04:25:26.099Z,2.07
2023-05-01T04:26:26.091Z,2.09
2023-05-01T04:27:26.077Z,2.14
2023-05-01T04:28:26.084Z,2.18
2023-05-01T04:29:26.096Z,2.23
2023-05-01T04:30:26.039Z,2.26
2023-05-01T04:31:26.096Z,2.27
2023-05-01T04:32:26.055Z,2.36
2023-05-01T04:33:26.004Z,2.41
2023-05-01T04:34:26.016Z,2.50
2023-05-01T04:35:26.015Z,2.55
2023-05-01T04:36:25.960Z,2.61
2023-05-01T04:37:25.962Z,2.65
2023-05-01T04:38:25.947Z,2.71
2023-05-01T04:39:25.952Z,2.77
2023-05-01T04:40:25.926Z,2.80
2023-05-01T04:41:25.904Z,2.84
2023-05-01T04:42:25.898Z,2.92
2023-05-01T04:43:25.859Z,2.99
2023-05-01T04:44:25.880Z,3.08
2023-05-01T04:45:25.839Z,3.16
2023-05-01T04:46:25.877Z,3.22
2023-05-01T04:47:25.836Z,3.31
2023-05-01T04:48:25.847Z,3.41
2023-05-01T04:49:25.807Z,3.50
2023-05-01T04:50:25.786Z,3.59
2023-05-01T04:51:25.760Z,3.71
2023-05-01T04:52:25.771Z,3.82
2023-05-01T04:53:25.741Z,4.00
2023-05-01T04:54:25.743Z,4.20
2023-05-01T04:55:25.708Z,4.44
2023-05-01T04:56:25.731Z,4.71
2023-05-01T04:57:25.704Z,5.01
2023-05-01T04:58:25.667Z,5.27
2023-05-01T04:59:25.692Z,5.45
2023-05-01T05:00:25.727Z,5.51
2023-05-01T05:01:25.667Z,5.55
2023-05-01T05:02:25.718Z,5.60
2023-05-01T05:03:25.669Z,5.67
2023-05-01T05:04:25.618Z,5.83
2023-05-01T05:05:25.605Z,5.99
2023-05-01T05:06:25.637Z,6.11
2023-05-01T05:07:25.565Z,6.27
2023-05-01T05:08:25.546Z,6.51
2023-05-01T05:09:25.556Z,6.76
2023-05-01T05:10:25.530Z,6.93
2023-05-01T05:11:25.500Z,7.01
2023-05-01T05:12:25.499Z,7.05
2023-05-01T05:13:25.479Z,7.09
2023-05-01T05:14:25.510Z,7.14
2023-05-01T05:15:25.471Z,7.16
2023-05-01T05:16:25.545Z,7.21
2023-05-01T05:17:25.437Z,7.24
2023-05-01T05:18:25.466Z,7.26
2023-05-01T05:19:25.421Z,7.32
2023-05-01T05:20:25.405Z,7.41
2023-05-01T05:21:25.389Z,7.52
2023-05-01T05:22:25.384Z,7.69
2023-05-01T05:23:25.367Z,7.86
2023-05-01T05:24:25.364Z,8.04
2023-05-01T05:25:25.431Z,8.24
2023-05-01T05:26:25.309Z,8.46
2023-05-01T05:27:25.344Z,8.65
2023-05-01T05:28:25.285Z,8.88
2023-05-01T05:29:25.297Z,9.12
2023-05-01T05:30:25.272Z,9.35
2023-05-01T05:31:25.277Z,9.62
2023-05-01T05:32:25.401Z,9.91
2023-05-01T05:33:25.286Z,10.14
2023-05-01T05:34:25.236Z,10.42
2023-05-01T05:35:25.191Z,10.69
2023-05-01T05:36:25.195Z,10.95
2023-05-01T05:37:25.162Z,11.26
2023-05-01T05:38:25.174Z,11.60
2023-05-01T05:39:25.190Z,11.94
2023-05-01T05:40:25.148Z,12.25
2023-05-01T05:41:25.134Z,12.52
2023-05-01T05:42:25.137Z,12.66
2023-05-01T05:43:27.848Z,12.67
2023-05-01T05:44:25.091Z,12.62
2023-05-01T05:45:25.067Z,12.66
2023-05-01T05:46:25.110Z,12.69
2023-05-01T05:47:25.050Z,12.76
2023-05-01T05:48:25.083Z,12.85
2023-05-01T05:49:25.159Z,12.92
2023-05-01T05:50:25.015Z,12.98
2023-05-01T05:51:24.979Z,13.03
2023-05-01T05:52:24.998Z,13.14
2023-05-01T05:53:26.150Z,13.24
2023-05-01T05:54:24.963Z,13.28
2023-05-01T05:55:24.930Z,13.31
2023-05-01T05:56:24.936Z,13.38
2023-05-01T05:57:24.918Z,13.41
2023-05-01T05:58:24.915Z,13.44
2023-05-01T05:59:24.904Z,13.51
2023-05-01T06:00:24.873Z,13.59
2023-05-01T06:01:25.026Z,13.65
2023-05-01T06:02:24.884Z,13.73
2023-05-01T06:03:25.149Z,13.91
2023-05-01T06:04:24.835Z,14.12
2023-05-01T06:05:24.832Z,14.24
2023-05-01T06:06:24.826Z,14.44
2023-05-01T06:07:24.804Z,14.69
2023-05-01T06:08:24.831Z,14.94
2023-05-01T06:09:24.780Z,15.15
2023-05-01T06:10:24.748Z,15.31
2023-05-01T06:11:24.732Z,15.51
2023-05-01T06:12:24.718Z,15.68
2023-05-01T06:13:24.710Z,15.89
2023-05-01T06:14:24.706Z,16.03
2023-05-01T06:15:24.838Z,16.14
2023-05-01T06:16:24.719Z,16.29
2023-05-01T06:17:24.649Z,16.32
2023-05-01T06:18:24.633Z,16.36
2023-05-01T06:19:24.657Z,16.48
2023-05-01T06:20:24.609Z,16.70
2023-05-01T06:21:24.615Z,16.91
2023-05-01T06:22:24.594Z,17.21
2023-05-01T06:23:24.606Z,17.46
2023-05-01T06:24:24.580Z,17.79
2023-05-01T06:25:24.551Z,17.99
2023-05-01T06:26:24.555Z,18.05
2023-05-01T06:27:24.529Z,18.19
2023-05-01T06:28:24.500Z,18.32
2023-05-01T06:29:24.510Z,18.60
2023-05-01T06:30:24.498Z,18.86
2023-05-01T06:31:24.500Z,19.12
2023-05-01T06:32:24.482Z,19.40
2023-05-01T06:33:24.440Z,19.60
2023-05-01T06:34:24.448Z,19.75
2023-05-01T06:35:24.428Z,19.70
2023-05-01T06:36:24.398Z,19.78
2023-05-01T06:37:24.379Z,20.07
2023-05-01T06:38:26.303Z,20.35
2023-05-01T06:39:24.399Z,20.41
2023-05-01T06:40:24.553Z,20.41
2023-05-01T06:41:24.326Z,20.50
2023-05-01T06:42:24.323Z,20.72
2023-05-01T06:43:24.306Z,20.82
2023-05-01T06:44:24.305Z,21.01
2023-05-01T06:45:24.316Z,21.15
2023-05-01T06:46:24.328Z,21.36
2023-05-01T06:47:24.378Z,21.61
2023-05-01T06:48:24.239Z,21.99
2023-05-01T06:49:24.267Z,22.29
2023-05-01T06:50:24.232Z,22.45
2023-05-01T06:51:24.215Z,22.56
2023-05-01T06:52:24.187Z,22.52
2023-05-01T06:53:24.202Z,22.61
2023-05-01T06:54:24.213Z,22.86
2023-05-01T06:55:24.160Z,23.15
2023-05-01T06:56:24.137Z,23.35
2023-05-01T06:57:24.129Z,23.44
2023-05-01T06:58:24.700Z,23.52
2023-05-01T06:59:24.109Z,23.68
2023-05-01T07:00:24.091Z,23.77
2023-05-01T07:01:24.129Z,23.81
2023-05-01T07:02:24.112Z,23.92
2023-05-01T07:03:24.078Z,24.08
2023-05-01T07:04:24.102Z,24.06
2023-05-01T07:05:24.029Z,24.18
2023-05-01T07:06:24.051Z,24.29
2023-05-01T07:07:24.006Z,24.19
2023-05-01T07:08:23.989Z,24.39
2023-05-01T07:09:23.986Z,24.67
2023-05-01T07:10:23.960Z,24.93
2023-05-01T07:11:26.485Z,24.86
2023-05-01T07:12:23.929Z,24.87
2023-05-01T07:13:23.941Z,24.89
2023-05-01T07:14:23.938Z,24.68
2023-05-01T07:15:23.888Z,24.70
2023-05-01T07:16:23.917Z,24.71
2023-05-01T07:17:23.897Z,24.64
2023-05-01T07:18:23.876Z,24.44
2023-05-01T07:19:23.857Z,24.61
2023-05-01T07:20:23.822Z,24.74
2023-05-01T07:21:23.837Z,24.67
2023-05-01T07:22:23.809Z,24.63
2023-05-01T07:23:23.782Z,24.82
2023-05-01T07:24:23.826Z,24.97
2023-05-01T07:25:23.765Z,25.07
2023-05-01T07:26:23.766Z,25.14
2023-05-01T07:27:23.750Z,24.92
2023-05-01T07:28:23.711Z,24.70
2023-05-01T07:29:23.752Z,24.70
2023-05-01T07:30:23.690Z,24.77
2023-05-01T07:31:23.725Z,25.05
2023-05-01T07:32:23.666Z,25.20
2023-05-01T07:33:23.749Z,25.01
2023-05-01T07:34:23.661Z,24.80
2023-05-01T07:35:23.637Z,24.66
2023-05-01T07:36:23.650Z,24.94
2023-05-01T07:37:23.614Z,25.19
2023-05-01T07:38:23.595Z,25.31
2023-05-01T07:39:23.583Z,25.56
2023-05-01T07:40:23.563Z,25.57
2023-05-01T07:41:23.578Z,25.36
2023-05-01T07:42:23.542Z,25.14
2023-05-01T07:43:23.536Z,24.90
2023-05-01T07:44:23.523Z,24.74
2023-05-01T07:45:23.495Z,24.79
2023-05-01T07:46:23.548Z,24.94
2023-05-01T07:47:23.516Z,25.12
2023-05-01T07:48:23.474Z,25.31
2023-05-01T07:49:23.475Z,25.45
2023-05-01T07:50:23.448Z,25.56
2023-05-01T07:51:23.415Z,25.83
2023-05-01T07:52:23.417Z,26.01
2023-05-01T07:53:23.419Z,26.16
2023-05-01T07:54:23.388Z,26.23
2023-05-01T07:55:23.372Z,26.34
2023-05-01T07:56:23.360Z,26.46
2023-05-01T07:57:23.360Z,26.35
2023-05-01T07:58:23.330Z,26.03
2023-05-01T07:59:23.386Z,25.97
2023-05-01T08:00:23.304Z,26.09
2023-05-01T08:01:23.298Z,26.28
2023-05-01T08:02:23.322Z,26.31
2023-05-01T08:03:23.511Z,26.50
2023-05-01T08:04:23.490Z,26.79
2023-05-01T08:05:23.255Z,26.87
2023-05-01T08:06:23.287Z,27.03
2023-05-01T08:07:23.213Z,27.13
2023-05-01T08:08:23.214Z,27.24
2023-05-01T08:09:23.234Z,27.25
2023-05-01T08:10:23.219Z,27.24
2023-05-01T08:11:23.193Z,27.18
2023-05-01T08:12:23.149Z,27.24
2023-05-01T08:13:23.174Z,27.35
2023-05-01T08:14:23.140Z,27.58
2023-05-01T08:15:23.116Z,27.81
2023-05-01T08:16:23.128Z,27.87
2023-05-01T08:17:23.114Z,27.65
2023-05-01T08:18:23.091Z,27.35
2023-05-01T08:19:23.082Z,27.21
2023-05-01T08:20:23.092Z,26.96
2023-05-01T08:21:23.064Z,26.84
2023-05-01T08:22:23.042Z,26.91
2023-05-01T08:23:23.029Z,27.08
2023-05-01T08:24:23.283Z,27.24
2023-05-01T08:25:23.004Z,27.24
2023-05-01T08:26:23.023Z,27.15
2023-05-01T08:27:23.000Z,26.96
2023-05-01T08:28:22.961Z,26.73
2023-05-01T08:29:22.981Z,26.81
2023-05-01T08:30:22.981Z,26.90
2023-05-01T08:31:22.925Z,26.97
2023-05-01T08:32:22.959Z,26.86
2023-05-01T08:33:22.892Z,26.59
2023-05-01T08:34:22.885Z,26.32
2023-05-01T08:35:22.880Z,25.97
2023-05-01T08:36:22.838Z,25.93
2023-05-01T08:37:22.855Z,25.97
2023-05-01T08:38:22.822Z,26.00
2023-05-01T08:39:22.827Z,26.09
2023-05-01T08:40:22.831Z,25.98
2023-05-01T08:41:22.799Z,25.90
2023-05-01T08:42:22.771Z,25.98
2023-05-01T08:43:22.758Z,26.12
2023-05-01T08:44:22.779Z,26.28
2023-05-01T08:45:22.756Z,26.36
2023-05-01T08:46:22.731Z,26.35
2023-05-01T08:47:22.728Z,26.21
2023-05-01T08:48:22.719Z,26.00
2023-05-01T08:49:22.699Z,25.96
2023-05-01T08:50:22.978Z,25.97
2023-05-01T08:51:22.655Z,25.96
2023-05-01T08:52:22.673Z,25.97
2023-05-01T08:53:22.632Z,25.85
2023-05-01T08:54:22.656Z,25.64
2023-05-01T08:55:22.616Z,25.61
2023-05-01T08:56:22.581Z,25.60
2023-05-01T08:57:22.587Z,25.57
2023-05-01T08:58:22.576Z,25.56
2023-05-01T08:59:22.566Z,25.59
2023-05-01T09:00:22.620Z,25.66
2023-05-01T09:01:22.547Z,25.53
2023-05-01T09:02:22.566Z,25.39
2023-05-01T09:03:22.582Z,25.16
2023-05-01T09:04:22.548Z,24.84
2023-05-01T09:05:22.496Z,24.49
2023-05-01T09:06:22.494Z,24.34
2023-05-01T09:07:22.482Z,24.31
2023-05-01T09:08:22.444Z,24.36
2023-05-01T09:09:22.433Z,24.45
2023-05-01T09:10:22.402Z,24.49
2023-05-01T09:11:22.415Z,24.48
2023-05-01T09:12:22.383Z,24.42
2023-05-01T09:13:22.383Z,24.34
2023-05-01T09:14:22.367Z,24.34
2023-05-01T09:15:22.386Z,24.34
2023-05-01T09:16:22.353Z,24.29
2023-05-01T09:17:22.424Z,24.19
2023-05-01T09:18:22.359Z,24.12
2023-05-01T09:19:22.302Z,24.08
2023-05-01T09:20:22.301Z,24.08
2023-05-01T09:21:22.308Z,24.05
2023-05-01T09:22:22.237Z,23.94
2023-05-01T09:23:22.239Z,23.93
2023-05-01T09:24:22.268Z,23.84
2023-05-01T09:25:22.233Z,23.75
2023-05-01T09:26:22.200Z,23.74
2023-05-01T09:27:22.197Z,23.77
2023-05-01T09:28:22.174Z,23.79
2023-05-01T09:29:22.173Z,23.72
2023-05-01T09:30:22.141Z,23.64
2023-05-01T09:31:22.165Z,23.59
2023-05-01T09:32:22.231Z,23.44
2023-05-01T09:33:22.153Z,23.29
2023-05-01T09:34:22.102Z,23.37
2023-05-01T09:35:22.081Z,23.41
2023-05-01T09:36:22.076Z,23.37
2023-05-01T09:37:22.091Z,23.23
2023-05-01T09:38:22.096Z,23.19
2023-05-01T09:39:22.050Z,23.25
2023-05-01T09:40:22.036Z,23.32
2023-05-01T09:41:22.025Z,23.29
2023-05-01T09:42:21.994Z,23.38
2023-05-01T09:43:22.002Z,23.44
2023-05-01T09:44:21.972Z,23.53
2023-05-01T09:45:21.960Z,23.52
2023-05-01T09:46:21.969Z,23.52
2023-05-01T09:47:21.975Z,23.67
2023-05-01T09:48:21.906Z,23.71
2023-05-01T09:49:21.909Z,23.72
2023-05-01T09:50:21.889Z,23.81
2023-05-01T09:51:21.906Z,23.82
2023-05-01T09:52:21.859Z,23.79
2023-05-01T09:53:21.862Z,23.81
2023-05-01T09:54:21.843Z,23.74
2023-05-01T09:55:23.086Z,23.57
2023-05-01T09:56:21.830Z,23.42
2023-05-01T09:57:21.799Z,23.29
2023-05-01T09:58:21.785Z,23.18
2023-05-01T09:59:21.802Z,23.04
2023-05-01T10:00:21.775Z,22.96
2023-05-01T10:01:21.794Z,22.93
2023-05-01T10:02:21.816Z,22.88
2023-05-01T10:03:21.803Z,22.86
2023-05-01T10:04:21.749Z,22.96
2023-05-01T10:05:21.721Z,23.04
2023-05-01T10:06:21.767Z,23.09
2023-05-01T10:07:21.675Z,23.14
2023-05-01T10:08:21.651Z,23.14
2023-05-01T10:09:21.675Z,23.11
2023-05-01T10:10:21.653Z,23.04
2023-05-01T10:11:21.632Z,22.99
2023-05-01T10:12:21.616Z,22.88
2023-05-01T10:13:21.593Z,22.79
2023-05-01T10:14:21.597Z,22.75
2023-05-01T10:15:25.972Z,22.79
2023-05-01T10:16:22.618Z,22.85
2023-05-01T10:17:21.621Z,22.89
2023-05-01T10:18:21.703Z,22.97
2023-05-01T10:19:21.542Z,22.99
2023-05-01T10:20:21.522Z,23.00
2023-05-01T10:21:21.485Z,23.06
2023-05-01T10:22:21.499Z,23.06
2023-05-01T10:23:21.455Z,23.06
2023-05-01T10:24:21.504Z,23.07
2023-05-01T10:25:21.433Z,23.15
2023-05-01T10:26:21.429Z,23.22
2023-05-01T10:27:21.418Z,23.34
2023-05-01T10:28:21.397Z,23.44
2023-05-01T10:29:21.388Z,23.50
2023-05-01T10:30:21.393Z,23.57
2023-05-01T10:31:21.405Z,23.64
2023-05-01T10:32:21.352Z,23.60
2023-05-01T10:33:21.439Z,23.57
2023-05-01T10:34:21.348Z,23.47
2023-05-01T10:35:21.301Z,23.38
2023-05-01T10:36:21.292Z,23.35
2023-05-01T10:37:21.322Z,23.34
2023-05-01T10:38:21.279Z,23.31
2023-05-01T10:39:21.301Z,23.31
2023-05-01T10:40:21.249Z,23.29
2023-05-01T10:41:21.220Z,23.41
2023-05-01T10:42:21.207Z,23.62
2023-05-01T10:43:21.224Z,23.75
2023-05-01T10:44:21.209Z,23.90
2023-05-01T10:45:21.174Z,23.84
2023-05-01T10:46:21.319Z,23.69
2023-05-01T10:47:21.174Z,23.56
2023-05-01T10:48:21.140Z,23.50
2023-05-01T10:49:21.157Z,23.59
2023-05-01T10:50:21.105Z,23.64
2023-05-01T10:51:21.108Z,23.69
2023-05-01T10:52:21.101Z,23.79
2023-05-01T10:53:21.070Z,23.84
2023-05-01T10:54:21.082Z,23.87
2023-05-01T10:55:21.038Z,23.82
2023-05-01T10:56:21.019Z,23.75
2023-05-01T10:57:21.030Z,23.62
2023-05-01T10:58:21.006Z,23.50
2023-05-01T10:59:21.016Z,23.56
2023-05-01T11:00:20.981Z,23.53
2023-05-01T11:01:21.027Z,23.49
2023-05-01T11:02:20.988Z,23.49
2023-05-01T11:03:20.974Z,23.53
2023-05-01T11:04:20.941Z,23.60
2023-05-01T11:05:32.187Z,23.68
2023-05-01T11:06:22.002Z,23.81
2023-05-01T11:07:20.974Z,23.92
2023-05-01T11:08:20.901Z,23.94
2023-05-01T11:09:21.146Z,23.97
2023-05-01T11:10:20.854Z,24.05
2023-05-01T11:11:20.832Z,24.02
2023-05-01T11:12:20.826Z,24.05
2023-05-01T11:13:20.809Z,24.15
2023-05-01T11:14:20.838Z,24.30
2023-05-01T11:15:20.781Z,24.45
2023-05-01T11:16:20.905Z,24.60
2023-05-01T11:17:20.758Z,24.74
2023-05-01T11:18:20.759Z,24.82
2023-05-01T11:19:20.748Z,24.84
2023-05-01T11:20:20.719Z,24.90
2023-05-01T11:21:20.722Z,24.94
2023-05-01T11:22:20.733Z,24.90
2023-05-01T11:23:20.715Z,24.84
2023-05-01T11:24:20.712Z,24.79
2023-05-01T11:25:20.688Z,24.67
2023-05-01T11:26:20.652Z,24.52
2023-05-01T11:27:20.619Z,24.37
2023-05-01T11:28:20.644Z,24.30
2023-05-01T11:29:20.614Z,24.21
2023-05-01T11:30:20.599Z,24.29
2023-05-01T11:31:20.630Z,24.31
2023-05-01T11:32:20.770Z,24.34
2023-05-01T11:33:20.595Z,24.39
2023-05-01T11:34:20.573Z,24.31
2023-05-01T11:35:20.542Z,24.08
2023-05-01T11:36:20.509Z,23.93
2023-05-01T11:37:20.504Z,23.81
2023-05-01T11:38:20.496Z,23.71
2023-05-01T11:39:20.546Z,23.63
2023-05-01T11:40:20.473Z,23.60
2023-05-01T11:41:20.750Z,23.57
2023-05-01T11:42:20.528Z,23.60
2023-05-01T11:43:20.443Z,23.64
2023-05-01T11:44:20.456Z,23.57
2023-05-01T11:45:20.436Z,23.52
2023-05-01T11:46:20.438Z,23.34
2023-05-01T11:47:20.402Z,23.25
2023-05-01T11:48:20.522Z,23.19
2023-05-01T11:49:20.348Z,23.18
2023-05-01T11:50:20.350Z,23.18
2023-05-01T11:51:20.327Z,23.31
2023-05-01T11:52:20.305Z,23.37
2023-05-01T11:53:20.299Z,23.45
2023-05-01T11:54:20.310Z,23.52
2023-05-01T11:55:20.321Z,23.41
2023-05-01T11:56:26.512Z,23.34
2023-05-01T11:57:21.253Z,23.34
2023-05-01T11:58:20.252Z,23.37
2023-05-01T11:59:20.248Z,23.44
2023-05-01T12:00:20.220Z,23.49
2023-05-01T12:01:20.205Z,23.53
2023-05-01T12:02:20.294Z,23.57
2023-05-01T12:03:20.332Z,23.54
2023-05-01T12:04:20.264Z,23.56
2023-05-01T12:05:20.149Z,23.62
2023-05-01T12:06:20.166Z,23.68
2023-05-01T12:07:20.133Z,23.64
2023-05-01T12:08:20.102Z,23.53
2023-05-01T12:09:20.122Z,23.49
2023-05-01T12:10:20.093Z,23.34
2023-05-01T12:11:20.069Z,23.29
2023-05-01T12:12:20.059Z,23.29
2023-05-01T12:13:20.038Z,23.21
2023-05-01T12:14:20.038Z,23.14
2023-05-01T12:15:20.011Z,23.15
2023-05-01T12:16:20.050Z,23.15
2023-05-01T12:17:20.097Z,23.18
2023-05-01T12:18:20.005Z,23.29
2023-05-01T12:19:21.720Z,23.42
2023-05-01T12:20:19.947Z,23.50
2023-05-01T12:21:19.954Z,23.54
2023-05-01T12:22:19.925Z,23.54
2023-05-01T12:23:19.921Z,23.45
2023-05-01T12:24:19.907Z,23.41
2023-05-01T12:25:19.872Z,23.41
2023-05-01T12:26:19.885Z,23.39
2023-05-01T12:27:19.875Z,23.39
2023-05-01T12:28:20.097Z,23.39
2023-05-01T12:29:19.842Z,23.32
2023-05-01T12:30:19.859Z,23.14
2023-05-01T12:31:19.832Z,22.93
2023-05-01T12:32:19.819Z,22.84
2023-05-01T12:33:19.902Z,22.81
2023-05-01T12:34:19.781Z,22.75
2023-05-01T12:35:19.769Z,22.64
2023-05-01T12:36:19.733Z,22.60
2023-05-01T12:37:19.723Z,22.61
2023-05-01T12:38:19.730Z,22.66
2023-05-01T12:39:19.727Z,22.78
2023-05-01T12:40:19.718Z,22.86
2023-05-01T12:41:19.664Z,22.94
2023-05-01T12:42:19.666Z,23.01
2023-05-01T12:43:19.682Z,23.03
2023-05-01T12:44:19.641Z,22.97
2023-05-01T12:45:19.622Z,22.93
2023-05-01T12:46:19.663Z,22.85
2023-05-01T12:47:19.592Z,22.84
2023-05-01T12:48:19.708Z,22.84
2023-05-01T12:49:19.570Z,22.85
2023-05-01T12:50:19.564Z,22.84
2023-05-01T12:51:19.539Z,22.76
2023-05-01T12:52:19.535Z,22.76
2023-05-01T12:53:19.516Z,22.70
2023-05-01T12:54:19.503Z,22.63
2023-05-01T12:55:19.483Z,22.60
2023-05-01T12:56:19.505Z,22.57
2023-05-01T12:57:19.467Z,22.59
2023-05-01T12:58:19.474Z,22.60
2023-05-01T12:59:19.435Z,22.64
2023-05-01T13:00:19.444Z,22.66
2023-05-01T13:01:19.445Z,22.63
2023-05-01T13:02:19.549Z,22.59
2023-05-01T13:03:19.474Z,22.52